createdAt,value
2023-05-22T00:00:07.857Z,1013.28
2023-05-22T00:05:08.062Z,1013.31
2023-05-22T00:10:08.104Z,1013.29
2023-05-22T00:15:08.248Z,1013.23
2023-05-22T00:20:08.344Z,1013.2
2023-05-22T00:25:08.321Z,1013.14
2023-05-22T00:30:08.309Z,1013.13
2023-05-22T00:35:08.339Z,1013.13
2023-05-22T00:40:08.391Z,1013.0
2023-05-22T00:45:08.359Z,1012.9
2023-05-22T00:50:08.346Z,1012.86
2023-05-22T00:55:08.351Z,1012.85
2023-05-22T01:00:10.394Z,1012.74
2023-05-22T01:05:08.212Z,1012.8
2023-05-22T01:10:08.248Z,1012.75
2023-05-22T01:15:16.704Z,1012.71
2023-05-22T01:20:08.725Z,1012.64
2023-05-22T01:25:08.717Z,1012.63
2023-05-22T01:30:08.758Z,1012.53
2023-05-22T01:35:08.754Z,1012.64
2023-05-22T01:40:08.751Z,1012.7
2023-05-22T01:45:08.744Z,1012.64
2023-05-22T01:50:08.792Z,1012.64
2023-05-22T01:55:08.868Z,1012.64
2023-05-22T02:00:09.334Z,1012.52
2023-05-22T02:05:08.284Z,1012.55
2023-05-22T02:10:08.253Z,1012.51
2023-05-22T02:15:08.255Z,1012.51
2023-05-22T02:20:08.259Z,1012.44
2023-05-22T02:25:08.226Z,1012.38
2023-05-22T02:30:08.287Z,1012.34
2023-05-22T02:35:08.310Z,1012.22
2023-05-22T02:40:08.376Z,1012.17
2023-05-22T02:45:08.441Z,1012.22
2023-05-22T02:50:08.440Z,1012.11
2023-05-22T02:55:08.438Z,1012.11
2023-05-22T03:00:08.427Z,1012.08
2023-05-22T03:05:08.446Z,1012.15
2023-05-22T03:10:08.453Z,1012.01
2023-05-22T03:15:08.441Z,1012.06
2023-05-22T03:20:08.458Z,1012.1
2023-05-22T03:25:08.464Z,1012.11
2023-05-22T03:30:08.501Z,1012.1
2023-05-22T03:35:08.527Z,1012.14
2023-05-22T03:40:08.528Z,1012.14
2023-05-22T03:45:08.549Z,1012.14
2023-05-22T03:50:08.550Z,1012.1
2023-05-22T03:55:08.536Z,1012.0
2023-05-22T04:00:08.560Z,1012.03
2023-05-22T04:05:02.780Z,1012.07
2023-05-22T04:10:02.944Z,1012.04
2023-05-22T04:15:02.157Z,1011.95
2023-05-22T04:20:02.338Z,1012.02
2023-05-22T04:25:02.578Z,1011.95
2023-05-22T04:30:02.827Z,1011.97
2023-05-22T04:35:03.028Z,1011.95
2023-05-22T04:40:02.099Z,1011.93
2023-05-22T04:45:02.258Z,1011.94
2023-05-22T04:50:02.526Z,1011.99
2023-05-22T04:55:03.888Z,1012.05
2023-05-22T05:00:03.048Z,1011.99
2023-05-22T05:05:02.390Z,1011.95
2023-05-22T05:10:02.494Z,1011.97
2023-05-22T05:15:02.584Z,1011.99
2023-05-22T05:20:02.781Z,1012.04
2023-05-22T05:25:03.011Z,1012.05
2023-05-22T05:30:02.122Z,1012.05
2023-05-22T05:35:02.400Z,1012.15
2023-05-22T05:40:02.467Z,1012.14
2023-05-22T05:45:02.569Z,1012.23
2023-05-22T05:50:02.672Z,1012.21
2023-05-22T05:55:02.800Z,1012.2
2023-05-22T06:00:02.921Z,1012.23
2023-05-22T06:05:02.087Z,1012.37
2023-05-22T06:10:02.585Z,1012.3
2023-05-22T06:15:02.766Z,1012.37
2023-05-22T06:20:02.959Z,1012.4
2023-05-22T06:25:02.156Z,1012.39
2023-05-22T06:30:04.390Z,1012.39
2023-05-22T06:35:02.975Z,1012.34
2023-05-22T06:40:02.133Z,1012.38
2023-05-22T06:45:02.496Z,1012.47
2023-05-22T06:50:02.723Z,1012.43
2023-05-22T06:55:02.900Z,1012.59
2023-05-22T07:00:06.922Z,1012.66
2023-05-22T07:05:03.226Z,1012.62
2023-05-22T07:10:02.511Z,1012.68
2023-05-22T07:15:02.664Z,1012.71
2023-05-22T07:20:02.932Z,1012.78
2023-05-22T07:25:03.144Z,1012.74
2023-05-22T07:30:02.232Z,1012.83
2023-05-22T07:35:02.395Z,1012.9
2023-05-22T07:40:02.740Z,1012.9
2023-05-22T07:45:02.857Z,1012.9
2023-05-22T07:50:03.133Z,1012.97
2023-05-22T07:55:02.474Z,1013.02
2023-05-22T08:00:02.549Z,1013.05
2023-05-22T08:05:02.639Z,1012.96
2023-05-22T08:10:02.805Z,1012.99
2023-05-22T08:15:02.991Z,1012.98
2023-05-22T08:20:02.325Z,1013.03
2023-05-22T08:25:02.588Z,1012.99
2023-05-22T08:30:02.828Z,1012.99
2023-05-22T08:35:03.049Z,1013.05
2023-05-22T08:40:02.342Z,1012.94
2023-05-22T08:45:02.511Z,1012.9
2023-05-22T08:50:02.860Z,1012.89
2023-05-22T08:55:03.020Z,1012.89
2023-05-22T09:00:02.290Z,1012.89
2023-05-22T09:05:02.552Z,1012.83
2023-05-22T09:10:02.855Z,1012.84
2023-05-22T09:15:03.245Z,1012.84
2023-05-22T09:20:02.447Z,1012.84
2023-05-22T09:25:02.613Z,1012.85
2023-05-22T09:30:02.716Z,1012.8
2023-05-22T09:35:03.144Z,1012.8
2023-05-22T09:40:02.477Z,1012.8
2023-05-22T09:45:02.671Z,1012.75
2023-05-22T09:50:03.006Z,1012.73
2023-05-22T09:55:02.128Z,1012.69
2023-05-22T10:00:02.259Z,1012.69
2023-05-22T10:05:02.532Z,1012.74
2023-05-22T10:10:02.649Z,1012.67
2023-05-22T10:15:02.723Z,1012.76
2023-05-22T10:20:02.888Z,1012.71
2023-05-22T10:25:03.015Z,1012.62
2023-05-22T10:30:02.298Z,1012.56
2023-05-22T10:35:02.524Z,1012.56
2023-05-22T10:40:02.809Z,1012.47
2023-05-22T10:45:02.958Z,1012.46
2023-05-22T10:50:02.220Z,1012.44
2023-05-22T10:55:02.310Z,1012.49
2023-05-22T11:00:02.581Z,1012.49
2023-05-22T11:05:02.809Z,1012.53
2023-05-22T11:10:02.947Z,1012.52
2023-05-22T11:15:02.084Z,1012.43
2023-05-22T11:20:02.475Z,1012.48
2023-05-22T11:25:02.751Z,1012.43
2023-05-22T11:30:02.904Z,1012.36
2023-05-22T11:35:02.983Z,1012.31
2023-05-22T11:40:02.216Z,1012.45
2023-05-22T11:45:02.672Z,1012.46
2023-05-22T11:50:02.815Z,1012.46
2023-05-22T11:55:03.026Z,1012.38
2023-05-22T12:00:02.317Z,1012.36
2023-05-22T12:05:02.669Z,1012.31
2023-05-22T12:10:02.877Z,1012.25
2023-05-22T12:15:03.042Z,1012.27
2023-05-22T12:20:02.224Z,1012.32
2023-05-22T12:25:02.353Z,1012.28
2023-05-22T12:30:02.515Z,1012.33
2023-05-22T12:35:02.725Z,1012.2
2023-05-22T12:40:03.019Z,1012.26
2023-05-22T12:45:02.188Z,1012.19
2023-05-22T12:50:02.380Z,1012.15
2023-05-22T12:55:02.494Z,1012.15
2023-05-22T13:00:02.587Z,1012.11
2023-05-22T13:05:02.746Z,1012.11
2023-05-22T13:10:02.909Z,1012.05
2023-05-22T13:15:03.051Z,1012.05
2023-05-22T13:20:02.212Z,1012.08
2023-05-22T13:25:02.385Z,1012.02
2023-05-22T13:30:02.533Z,1012.03
2023-05-22T13:35:02.785Z,1012.03
2023-05-22T13:40:02.889Z,1011.98
2023-05-22T13:45:03.137Z,1012.0
2023-05-22T13:50:02.284Z,1011.98
2023-05-22T13:55:02.413Z,1011.98
2023-05-22T14:00:02.546Z,1012.1
2023-05-22T14:05:02.704Z,1012.07
2023-05-22T14:10:02.863Z,1012.01
2023-05-22T14:15:03.158Z,1012.01
2023-05-22T14:20:02.540Z,1012.09
2023-05-22T14:25:02.749Z,1012.08
2023-05-22T14:30:02.906Z,1012.03
2023-05-22T14:35:02.992Z,1012.03
2023-05-22T14:40:02.226Z,1012.07
2023-05-22T14:45:02.328Z,1012.11
2023-05-22T14:50:17.998Z,1012.15
2023-05-22T14:55:02.128Z,1012.22
2023-05-22T15:00:02.393Z,1012.25
2023-05-22T15:05:02.534Z,1012.08
2023-05-22T15:10:02.728Z,1012.06
2023-05-22T15:15:02.854Z,1012.06
2023-05-22T15:20:02.978Z,1012.34
2023-05-22T15:25:02.026Z,1012.36
2023-05-22T15:30:02.176Z,1012.55
2023-05-22T15:35:02.313Z,1012.55
2023-05-22T15:40:02.556Z,1012.82
2023-05-22T15:45:02.589Z,1012.7
2023-05-22T15:50:02.899Z,1012.66
2023-05-22T15:55:02.080Z,1012.66
2023-05-22T16:00:02.319Z,1012.66
2023-05-22T16:05:02.407Z,1012.66
2023-05-22T16:10:02.587Z,1012.66
2023-05-22T16:15:04.512Z,1012.75
2023-05-22T16:20:02.059Z,1012.68
2023-05-22T16:25:02.169Z,1012.73
2023-05-22T16:30:02.398Z,1012.78
2023-05-22T16:35:02.535Z,1012.78
2023-05-22T16:40:02.589Z,1012.73
2023-05-22T16:45:02.692Z,1012.74
2023-05-22T16:50:02.782Z,1012.73
2023-05-22T16:55:02.895Z,1012.75
2023-05-22T17:00:03.006Z,1012.82
2023-05-22T17:05:02.394Z,1012.8
2023-05-22T17:10:02.502Z,1012.74
2023-05-22T17:15:02.740Z,1012.77
2023-05-22T17:20:02.904Z,1012.77
2023-05-22T17:25:02.988Z,1012.82
2023-05-22T17:30:02.237Z,1012.82
2023-05-22T17:35:02.603Z,1012.9
2023-05-22T17:40:02.844Z,1013.01
2023-05-22T17:45:02.928Z,1013.04
2023-05-22T17:50:03.106Z,1013.2
2023-05-22T17:55:02.284Z,1013.2
2023-05-22T18:00:02.421Z,1013.23
2023-05-22T18:05:05.295Z,1013.3
2023-05-22T18:10:02.371Z,1013.39
2023-05-22T18:15:02.440Z,1013.36
2023-05-22T18:20:02.657Z,1013.46
2023-05-22T18:25:02.944Z,1013.46
2023-05-22T18:30:02.063Z,1013.51
2023-05-22T18:35:02.068Z,1013.53
2023-05-22T18:40:02.140Z,1013.72
2023-05-22T18:45:02.270Z,1013.81
2023-05-22T18:50:02.333Z,1013.81
2023-05-22T18:55:02.589Z,1013.85
2023-05-22T19:00:02.648Z,1014.0
2023-05-22T19:05:02.893Z,1013.98
2023-05-22T19:10:02.084Z,1013.98
2023-05-22T19:15:02.222Z,1014.18
2023-05-22T19:20:02.270Z,1014.17
2023-05-22T19:25:02.414Z,1014.15
2023-05-22T19:30:02.484Z,1014.15
2023-05-22T19:35:02.527Z,1014.25
2023-05-22T19:40:02.694Z,1014.34
2023-05-22T19:45:02.854Z,1014.34
2023-05-22T19:50:02.953Z,1014.46
2023-05-22T19:55:02.100Z,1014.42
2023-05-22T20:00:02.189Z,1014.49
2023-05-22T20:05:02.423Z,1014.48
2023-05-22T20:10:02.842Z,1014.48
2023-05-22T20:15:03.027Z,1014.58
2023-05-22T20:20:02.289Z,1014.61
2023-05-22T20:25:02.555Z,1014.75
2023-05-22T20:30:02.812Z,1014.75
2023-05-22T20:35:03.020Z,1014.8
2023-05-22T20:40:02.170Z,1014.89
2023-05-22T20:45:02.391Z,1014.99
2023-05-22T20:50:02.581Z,1014.99
2023-05-22T20:55:02.720Z,1015.15
2023-05-22T21:00:02.751Z,1015.16
2023-05-22T21:05:15.674Z,1015.28
2023-05-22T21:10:08.688Z,1015.28
2023-05-22T21:15:08.668Z,1015.46
2023-05-22T21:20:08.694Z,1015.43
2023-05-22T21:25:08.692Z,1015.53
2023-05-22T21:30:08.713Z,1015.53
2023-05-22T21:35:08.712Z,1015.55
2023-05-22T21:40:08.705Z,1015.6
2023-05-22T21:45:08.762Z,1015.56
2023-05-22T21:50:08.801Z,1015.56
2023-05-22T21:55:08.816Z,1015.63
2023-05-22T22:00:08.891Z,1015.57
2023-05-22T22:05:08.887Z,1015.68
2023-05-22T22:10:08.900Z,1015.76
2023-05-22T22:15:08.896Z,1015.68
2023-05-22T22:20:08.927Z,1015.63
2023-05-22T22:25:08.899Z,1015.73
2023-05-22T22:30:08.932Z,1015.73
2023-05-22T22:35:07.938Z,1015.89
2023-05-22T22:40:07.954Z,1015.79
2023-05-22T22:45:07.963Z,1015.89
2023-05-22T22:50:08.005Z,1015.89
2023-05-22T22:55:08.016Z,1015.93
2023-05-22T23:01:16.827Z,1015.93
2023-05-22T23:05:08.950Z,1015.88
2023-05-22T23:10:08.882Z,1015.88
2023-05-22T23:15:08.900Z,1015.83
2023-05-22T23:20:08.942Z,1015.81
2023-05-22T23:25:07.947Z,1015.81
2023-05-22T23:30:07.934Z,1015.81
2023-05-22T23:35:08.969Z,1015.77
2023-05-22T23:40:07.935Z,1015.79
2023-05-22T23:45:07.920Z,1015.7
2023-05-22T23:50:08.932Z,1015.74
2023-05-22T23:55:07.921Z,1015.74
